createdAt,value
2022-10-21T00:00:51.483Z,75.68
2022-10-21T00:03:18.942Z,75.78
2022-10-21T00:05:46.382Z,75.69
2022-10-21T00:08:13.588Z,75.20
2022-10-21T00:10:40.289Z,75.67
2022-10-21T00:13:06.881Z,75.09
2022-10-21T00:15:33.436Z,75.97
2022-10-21T00:18:00.017Z,76.64
2022-10-21T00:20:26.645Z,76.82
2022-10-21T00:22:53.243Z,76.04
2022-10-21T00:25:19.818Z,75.84
2022-10-21T00:27:46.536Z,75.49
2022-10-21T00:30:13.152Z,76.02
2022-10-21T00:32:40.040Z,76.09
2022-10-21T00:35:07.183Z,74.85
2022-10-21T00:37:33.916Z,74.26
2022-10-21T00:40:00.566Z,74.13
2022-10-21T00:42:43.730Z,72.77
2022-10-21T00:45:20.387Z,72.63
2022-10-21T00:47:51.442Z,74.77
2022-10-21T00:50:33.264Z,74.31
2022-10-21T00:53:02.237Z,75.13
2022-10-21T00:55:34.113Z,76.89
2022-10-21T00:58:02.878Z,77.61
2022-10-21T01:00:29.944Z,75.60
2022-10-21T01:02:56.571Z,75.83
2022-10-21T01:05:23.519Z,75.97
2022-10-21T01:07:51.173Z,77.12
2022-10-21T01:10:18.689Z,78.52
2022-10-21T01:12:58.882Z,78.75
2022-10-21T01:15:41.791Z,78.54
2022-10-21T01:18:17.415Z,77.25
2022-10-21T01:21:05.320Z,76.97
2022-10-21T01:24:04.006Z,77.65
2022-10-21T01:26:36.502Z,78.54
2022-10-21T01:29:21.961Z,78.68
2022-10-21T01:32:00.669Z,79.40
2022-10-21T01:34:38.118Z,79.27
2022-10-21T01:37:31.568Z,78.17
2022-10-21T01:40:08.875Z,77.90
2022-10-21T01:42:43.049Z,78.16
2022-10-21T01:45:29.227Z,78.71
2022-10-21T01:48:05.940Z,80.01
2022-10-21T01:50:38.878Z,80.39
2022-10-21T01:53:10.028Z,79.76
2022-10-21T01:55:38.381Z,80.49
2022-10-21T01:58:25.406Z,80.46
2022-10-21T02:00:55.429Z,80.97
2022-10-21T02:03:26.979Z,80.40
2022-10-21T02:05:53.998Z,79.21
2022-10-21T02:08:21.158Z,79.38
2022-10-21T02:10:50.755Z,78.85
2022-10-21T02:13:29.799Z,77.28
2022-10-21T02:16:01.467Z,77.49
2022-10-21T02:18:28.124Z,78.42
2022-10-21T02:20:59.647Z,79.13
2022-10-21T02:23:51.529Z,78.31
2022-10-21T02:26:19.195Z,78.78
2022-10-21T02:28:46.869Z,79.08
2022-10-21T02:31:30.132Z,80.19
2022-10-21T02:34:21.518Z,79.14
2022-10-21T02:37:13.794Z,78.43
2022-10-21T02:39:48.169Z,79.12
2022-10-21T02:42:20.424Z,79.15
2022-10-21T02:44:47.084Z,79.74
2022-10-21T02:47:16.037Z,79.54
2022-10-21T02:49:47.238Z,81.37
2022-10-21T02:52:13.843Z,79.99
2022-10-21T02:54:40.422Z,79.65
2022-10-21T02:57:07.022Z,78.55
2022-10-21T02:59:33.701Z,79.56
2022-10-21T03:02:00.271Z,78.58
2022-10-21T03:04:26.873Z,78.35
2022-10-21T03:06:53.539Z,80.51
2022-10-21T03:09:20.236Z,81.96
2022-10-21T03:11:46.887Z,82.58
2022-10-21T03:14:13.574Z,81.55
2022-10-21T03:16:40.150Z,81.00
2022-10-21T03:19:06.754Z,82.00
2022-10-21T03:21:33.436Z,82.31
2022-10-21T03:24:00.038Z,82.45
2022-10-21T03:26:26.604Z,82.85
2022-10-21T03:28:53.163Z,80.72
2022-10-21T03:31:19.747Z,80.70
2022-10-21T03:33:46.359Z,80.73
2022-10-21T03:36:12.988Z,80.49
2022-10-21T03:38:39.713Z,80.85
2022-10-21T03:41:06.314Z,81.87
2022-10-21T03:43:32.881Z,82.11
2022-10-21T03:45:59.449Z,80.24
2022-10-21T03:48:26.169Z,80.67
2022-10-21T03:50:52.740Z,81.05
2022-10-21T03:53:38.139Z,81.32
2022-10-21T03:56:06.253Z,81.01
2022-10-21T03:58:32.819Z,80.70
2022-10-21T04:00:59.388Z,80.57
2022-10-21T04:03:26.001Z,79.06
2022-10-21T04:05:52.570Z,79.60
2022-10-21T04:08:19.205Z,79.22
2022-10-21T04:10:45.874Z,78.97
2022-10-21T04:13:12.757Z,79.87
2022-10-21T04:15:39.814Z,80.30
2022-10-21T04:18:07.579Z,78.99
2022-10-21T04:20:34.230Z,79.28
2022-10-21T04:23:00.978Z,78.78
2022-10-21T04:25:27.543Z,79.15
2022-10-21T04:27:54.099Z,79.62
2022-10-21T04:30:20.675Z,81.48
2022-10-21T04:32:47.278Z,80.57
2022-10-21T04:35:13.876Z,79.64
2022-10-21T04:37:40.464Z,81.29
2022-10-21T04:40:08.524Z,80.58
2022-10-21T04:42:35.352Z,81.15
2022-10-21T04:45:02.195Z,79.51
2022-10-21T04:47:28.815Z,79.50
2022-10-21T04:49:55.386Z,79.35
2022-10-21T04:52:21.965Z,81.02
2022-10-21T04:54:48.560Z,81.17
2022-10-21T04:57:15.147Z,80.09
2022-10-21T04:59:41.751Z,79.08
2022-10-21T05:02:08.394Z,79.56
2022-10-21T05:04:34.958Z,80.69
2022-10-21T05:07:01.535Z,80.98
2022-10-21T05:09:28.123Z,80.13
2022-10-21T05:11:54.745Z,82.28
2022-10-21T05:14:22.721Z,81.47
2022-10-21T05:16:49.821Z,80.75
2022-10-21T05:19:16.438Z,81.20
2022-10-21T05:21:43.089Z,80.82
2022-10-21T05:24:09.692Z,79.64
2022-10-21T05:26:36.267Z,80.42
2022-10-21T05:29:02.941Z,81.39
2022-10-21T05:31:29.572Z,80.52
2022-10-21T05:33:56.808Z,80.64
2022-10-21T05:36:24.194Z,81.47
2022-10-21T05:38:51.638Z,82.25
2022-10-21T05:41:18.404Z,82.60
2022-10-21T05:43:44.960Z,83.29
2022-10-21T05:46:11.577Z,83.87
2022-10-21T05:48:38.383Z,84.45
2022-10-21T05:51:05.643Z,84.75
2022-10-21T05:53:32.206Z,82.63
2022-10-21T05:56:04.684Z,82.73
2022-10-21T05:58:32.755Z,83.86
2022-10-21T06:00:59.973Z,87.15
2022-10-21T06:03:28.885Z,88.57
2022-10-21T06:05:57.993Z,90.85
2022-10-21T06:08:25.079Z,89.90
2022-10-21T06:11:02.907Z,90.61
2022-10-21T06:13:29.659Z,90.57
2022-10-21T06:15:56.725Z,91.27
2022-10-21T06:18:23.349Z,92.08
2022-10-21T06:20:49.952Z,92.15
2022-10-21T06:23:16.595Z,91.64
2022-10-21T06:25:44.371Z,93.16
2022-10-21T06:28:11.007Z,93.21
2022-10-21T06:30:37.585Z,92.48
2022-10-21T06:33:04.183Z,93.11
2022-10-21T06:35:30.833Z,94.01
2022-10-21T06:37:57.430Z,93.65
2022-10-21T06:40:24.019Z,94.15
2022-10-21T06:42:50.664Z,94.92
2022-10-21T06:45:17.418Z,94.31
2022-10-21T06:47:43.980Z,92.93
2022-10-21T06:50:11.742Z,94.40
2022-10-21T06:52:38.311Z,91.35
2022-10-21T06:55:05.483Z,92.34
2022-10-21T06:57:32.075Z,91.29
2022-10-21T06:59:58.634Z,92.42
2022-10-21T07:02:25.252Z,92.57
2022-10-21T07:04:52.208Z,93.07
2022-10-21T07:07:19.403Z,93.05
2022-10-21T07:09:46.042Z,91.71
2022-10-21T07:12:12.838Z,91.97
2022-10-21T07:14:39.425Z,91.66
2022-10-21T07:17:06.082Z,92.03
2022-10-21T07:19:33.178Z,91.53
2022-10-21T07:21:59.831Z,91.28
2022-10-21T07:24:26.472Z,89.25
2022-10-21T07:26:53.121Z,89.66
2022-10-21T07:29:20.428Z,88.46
2022-10-21T07:31:47.030Z,86.75
2022-10-21T07:34:13.598Z,85.32
2022-10-21T07:36:43.554Z,84.91
2022-10-21T07:39:13.836Z,85.22
2022-10-21T07:41:44.462Z,82.83
2022-10-21T07:44:11.621Z,85.02
2022-10-21T07:46:39.973Z,82.52
2022-10-21T07:49:07.566Z,84.62
2022-10-21T07:51:34.282Z,83.81
2022-10-21T07:54:01.459Z,76.39
2022-10-21T07:56:33.948Z,78.63
2022-10-21T07:59:01.269Z,73.82
2022-10-21T08:01:28.772Z,73.41
2022-10-21T08:03:55.786Z,73.47
2022-10-21T08:06:23.911Z,70.24
2022-10-21T08:08:50.649Z,70.96
2022-10-21T08:11:25.638Z,72.93
2022-10-21T08:13:53.255Z,73.16
2022-10-21T08:16:19.965Z,75.84
2022-10-21T08:18:47.167Z,72.79
2022-10-21T08:21:13.854Z,69.53
2022-10-21T08:23:40.704Z,71.64
2022-10-21T08:26:11.774Z,70.45
2022-10-21T08:28:38.604Z,71.40
2022-10-21T08:31:05.764Z,70.94
2022-10-21T08:33:32.491Z,68.03
2022-10-21T08:35:59.084Z,70.42
2022-10-21T08:38:25.718Z,71.37
2022-10-21T08:40:54.962Z,67.62
2022-10-21T08:43:29.663Z,67.71
2022-10-21T08:46:13.906Z,67.30
2022-10-21T08:48:54.245Z,63.54
2022-10-21T08:51:44.940Z,65.07
2022-10-21T08:54:24.442Z,63.72
2022-10-21T08:56:56.613Z,65.08
2022-10-21T08:59:25.405Z,65.05
2022-10-21T09:02:05.459Z,62.04
2022-10-21T09:04:53.237Z,62.69
2022-10-21T09:07:45.953Z,62.93
2022-10-21T09:10:20.337Z,65.63
2022-10-21T09:13:10.160Z,63.75
2022-10-21T09:16:04.927Z,61.54
2022-10-21T09:18:47.120Z,62.11
2022-10-21T09:21:50.865Z,62.80
2022-10-21T09:24:40.586Z,64.86
2022-10-21T09:27:10.225Z,60.83
2022-10-21T09:29:38.195Z,61.86
2022-10-21T09:32:04.775Z,62.62
2022-10-21T09:34:55.250Z,60.50
2022-10-21T09:37:43.662Z,62.06
2022-10-21T09:40:18.639Z,61.16
2022-10-21T09:42:48.162Z,58.58
2022-10-21T09:45:39.331Z,61.63
2022-10-21T09:48:17.942Z,59.00
2022-10-21T09:50:52.319Z,59.97
2022-10-21T09:53:45.920Z,60.41
2022-10-21T09:56:31.286Z,57.86
2022-10-21T09:59:15.833Z,57.58
2022-10-21T10:01:44.394Z,54.66
2022-10-21T10:04:30.552Z,55.40
2022-10-21T10:07:00.063Z,57.72
2022-10-21T10:09:30.461Z,59.29
2022-10-21T10:12:06.955Z,59.41
2022-10-21T10:14:36.783Z,56.16
2022-10-21T10:17:35.107Z,56.62
2022-10-21T10:20:04.468Z,56.89
2022-10-21T10:22:42.558Z,57.34
2022-10-21T10:25:12.180Z,53.93
2022-10-21T10:28:06.715Z,56.76
2022-10-21T10:30:45.189Z,54.84
2022-10-21T10:33:34.316Z,56.81
2022-10-21T10:36:05.523Z,56.44
2022-10-21T10:38:41.412Z,55.24
2022-10-21T10:41:18.931Z,53.83
2022-10-21T10:43:52.445Z,52.65
2022-10-21T10:46:27.449Z,52.90
2022-10-21T10:48:56.371Z,49.96
2022-10-21T10:51:34.060Z,49.58
2022-10-21T10:54:06.801Z,51.36
2022-10-21T10:56:42.604Z,52.97
2022-10-21T10:59:24.737Z,52.60
2022-10-21T11:02:04.417Z,50.74
2022-10-21T11:04:35.131Z,52.26
2022-10-21T11:07:07.796Z,51.17
2022-10-21T11:09:34.674Z,52.42
2022-10-21T11:12:10.115Z,52.40
2022-10-21T11:14:36.699Z,52.49
2022-10-21T11:17:06.242Z,52.54
2022-10-21T11:19:52.863Z,51.25
2022-10-21T11:22:46.908Z,52.74
2022-10-21T11:25:23.271Z,56.41
2022-10-21T11:28:23.816Z,52.85
2022-10-21T11:31:13.453Z,54.42
2022-10-21T11:33:55.171Z,54.55
2022-10-21T11:36:37.748Z,49.54
2022-10-21T11:39:34.509Z,50.46
2022-10-21T11:42:13.678Z,52.90
2022-10-21T11:45:03.719Z,52.02
2022-10-21T11:47:51.790Z,53.48
2022-10-21T11:50:41.236Z,51.19
2022-10-21T11:53:35.583Z,51.50
2022-10-21T11:56:17.415Z,49.43
2022-10-21T11:59:01.100Z,52.62
2022-10-21T12:01:54.595Z,50.86
2022-10-21T12:04:32.529Z,50.75
2022-10-21T12:07:17.372Z,50.73
2022-10-21T12:09:43.881Z,49.89
2022-10-21T12:12:17.497Z,51.26
2022-10-21T12:14:50.165Z,50.55
2022-10-21T12:17:20.431Z,48.92
2022-10-21T12:19:54.226Z,50.37
2022-10-21T12:22:22.439Z,50.06
2022-10-21T12:25:09.707Z,49.31
2022-10-21T12:27:47.504Z,48.80
2022-10-21T12:30:26.524Z,49.38
2022-10-21T12:33:15.011Z,50.83
2022-10-21T12:35:53.605Z,50.17
2022-10-21T12:38:21.938Z,53.11
2022-10-21T12:40:49.777Z,50.77
2022-10-21T12:43:22.724Z,50.91
2022-10-21T12:46:10.324Z,50.06
2022-10-21T12:48:40.648Z,50.19
2022-10-21T12:51:28.520Z,48.37
2022-10-21T12:54:03.940Z,48.63
2022-10-21T12:56:37.687Z,47.98
2022-10-21T12:59:06.740Z,48.67
2022-10-21T13:01:38.552Z,49.01
2022-10-21T13:04:15.021Z,50.20
2022-10-21T13:06:56.067Z,49.22
2022-10-21T13:09:38.200Z,50.08
2022-10-21T13:12:10.597Z,49.88
2022-10-21T13:14:40.236Z,49.86
2022-10-21T13:17:21.865Z,51.21
2022-10-21T13:20:06.902Z,50.24
2022-10-21T13:22:33.427Z,51.71
2022-10-21T13:25:37.377Z,51.27
2022-10-21T13:28:15.888Z,51.03
2022-10-21T13:30:48.548Z,49.35
2022-10-21T13:33:22.418Z,51.38
2022-10-21T13:35:54.559Z,49.68
2022-10-21T13:38:25.005Z,50.00
2022-10-21T13:40:55.465Z,51.08
2022-10-21T13:43:25.902Z,50.53
2022-10-21T13:46:03.691Z,51.25
2022-10-21T13:48:31.032Z,51.35
2022-10-21T13:51:07.119Z,49.80
2022-10-21T13:53:33.798Z,48.92
2022-10-21T13:56:07.043Z,49.19
2022-10-21T13:58:37.613Z,51.51
2022-10-21T14:01:25.518Z,48.89
2022-10-21T14:04:10.356Z,49.21
2022-10-21T14:06:42.004Z,51.00
2022-10-21T14:09:19.354Z,49.63
2022-10-21T14:11:48.786Z,49.58
2022-10-21T14:14:19.576Z,51.56
2022-10-21T14:16:55.867Z,50.82
2022-10-21T14:19:34.827Z,51.90
2022-10-21T14:22:02.700Z,51.52
2022-10-21T14:24:48.048Z,51.77
2022-10-21T14:27:19.031Z,51.74
2022-10-21T14:29:46.271Z,51.19
2022-10-21T14:32:18.066Z,50.66
2022-10-21T14:35:06.950Z,52.85
2022-10-21T14:37:49.428Z,51.89
2022-10-21T14:40:35.777Z,52.66
2022-10-21T14:43:06.978Z,52.93
2022-10-21T14:45:36.642Z,51.66
2022-10-21T14:48:09.310Z,53.98
2022-10-21T14:50:38.776Z,54.36
2022-10-21T14:53:19.039Z,53.32
2022-10-21T14:55:48.171Z,55.19
2022-10-21T15:01:12.501Z,55.78
2022-10-21T15:03:47.612Z,56.12
2022-10-21T15:06:29.529Z,57.06
2022-10-21T15:08:56.135Z,57.90
2022-10-21T15:11:25.749Z,57.66
2022-10-21T15:14:14.002Z,57.67
2022-10-21T15:16:50.828Z,56.58
2022-10-21T15:19:26.364Z,58.56
2022-10-21T15:21:56.919Z,57.22
2022-10-21T15:24:26.657Z,57.68
2022-10-21T15:26:54.151Z,59.18
2022-10-21T15:29:20.673Z,58.77
2022-10-21T15:31:47.711Z,59.80
2022-10-21T15:34:15.991Z,59.76
2022-10-21T15:39:18.979Z,60.58
2022-10-21T15:41:48.491Z,61.01
2022-10-21T15:44:25.108Z,62.85
2022-10-21T15:46:51.899Z,62.41
2022-10-21T15:49:24.877Z,61.83
2022-10-21T15:51:51.621Z,61.32
2022-10-21T15:54:19.361Z,62.30
2022-10-21T15:56:49.164Z,61.90
2022-10-21T15:59:22.003Z,62.95
2022-10-21T16:01:50.246Z,63.41
2022-10-21T16:04:17.169Z,64.29
2022-10-21T16:06:44.592Z,62.10
2022-10-21T16:09:14.707Z,62.12
2022-10-21T16:11:54.770Z,62.54
2022-10-21T16:14:29.267Z,64.00
2022-10-21T16:16:58.325Z,65.67
2022-10-21T16:19:24.945Z,65.68
2022-10-21T16:21:51.644Z,66.02
2022-10-21T16:24:18.535Z,65.45
2022-10-21T16:26:47.696Z,65.48
2022-10-21T16:29:23.333Z,65.56
2022-10-21T16:31:50.284Z,65.29
2022-10-21T16:34:16.939Z,65.01
2022-10-21T16:36:43.831Z,64.97
2022-10-21T16:39:15.131Z,66.27
2022-10-21T16:41:41.709Z,66.21
2022-10-21T16:44:08.307Z,66.02
2022-10-21T16:46:38.047Z,66.79
2022-10-21T16:49:12.888Z,65.66
2022-10-21T16:51:41.848Z,65.75
2022-10-21T16:54:08.601Z,66.54
2022-10-21T16:56:35.187Z,68.00
2022-10-21T16:59:01.782Z,67.82
2022-10-21T17:01:28.407Z,66.75
2022-10-21T17:03:55.067Z,66.63
2022-10-21T17:06:24.617Z,67.65
2022-10-21T17:08:53.126Z,66.47
2022-10-21T17:11:23.147Z,67.02
2022-10-21T17:13:49.979Z,67.16
2022-10-21T17:16:17.497Z,66.01
2022-10-21T17:18:44.278Z,65.81
2022-10-21T17:21:20.888Z,67.80
2022-10-21T17:23:51.144Z,69.08
2022-10-21T17:26:18.616Z,69.54
2022-10-21T17:28:45.790Z,68.74
2022-10-21T17:31:17.726Z,68.68
2022-10-21T17:33:45.038Z,68.83
2022-10-21T17:36:11.808Z,67.62
2022-10-21T17:38:38.617Z,68.05
2022-10-21T17:41:05.424Z,67.47
2022-10-21T17:43:32.077Z,65.79
2022-10-21T17:45:58.775Z,66.29
2022-10-21T17:48:25.501Z,67.14
2022-10-21T17:50:56.787Z,66.89
2022-10-21T17:53:23.761Z,67.81
2022-10-21T17:56:05.109Z,66.93
2022-10-21T17:58:31.706Z,68.36
2022-10-21T18:00:58.846Z,68.23
2022-10-21T18:03:27.427Z,68.46
2022-10-21T18:05:55.913Z,68.97
2022-10-21T18:08:23.322Z,68.03
2022-10-21T18:10:54.574Z,68.46
2022-10-21T18:13:26.284Z,69.04
2022-10-21T18:15:53.673Z,69.94
2022-10-21T18:18:22.089Z,69.44
2022-10-21T18:20:49.280Z,70.40
2022-10-21T18:23:15.912Z,69.97
2022-10-21T18:25:42.621Z,70.07
2022-10-21T18:28:09.490Z,71.38
2022-10-21T18:30:42.317Z,71.75
2022-10-21T18:33:09.330Z,71.31
2022-10-21T18:35:35.965Z,71.44
2022-10-21T18:38:02.538Z,70.02
2022-10-21T18:40:29.215Z,69.58
2022-10-21T18:42:55.877Z,69.59
2022-10-21T18:45:22.481Z,70.19
2022-10-21T18:47:49.067Z,71.17
2022-10-21T18:50:16.122Z,71.09
2022-10-21T18:52:42.737Z,70.49
2022-10-21T18:55:09.464Z,72.00
2022-10-21T18:57:36.032Z,71.56
2022-10-21T19:00:03.971Z,71.92
2022-10-21T19:02:30.559Z,72.23
2022-10-21T19:04:59.761Z,70.50
2022-10-21T19:07:28.918Z,71.57
2022-10-21T19:09:56.117Z,71.40
2022-10-21T19:12:23.730Z,73.36
2022-10-21T19:14:50.700Z,72.29
2022-10-21T19:17:17.845Z,72.35
2022-10-21T19:19:44.442Z,72.06
2022-10-21T19:22:11.084Z,72.41
2022-10-21T19:24:37.772Z,71.18
2022-10-21T19:27:04.363Z,72.50
2022-10-21T19:29:30.994Z,71.08
2022-10-21T19:31:57.556Z,72.29
2022-10-21T19:34:24.658Z,70.64
2022-10-21T19:36:51.234Z,70.43
2022-10-21T19:39:18.908Z,70.67
2022-10-21T19:41:46.363Z,70.71
2022-10-21T19:44:12.985Z,71.29
2022-10-21T19:46:39.557Z,71.22
2022-10-21T19:49:07.813Z,72.92
2022-10-21T19:51:34.977Z,71.46
2022-10-21T19:54:04.327Z,73.47
2022-10-21T19:56:33.398Z,73.63
2022-10-21T19:59:01.692Z,73.46
2022-10-21T20:01:28.441Z,73.87
2022-10-21T20:03:55.370Z,72.92
2022-10-21T20:06:30.620Z,74.08
2022-10-21T20:09:00.544Z,73.62
2022-10-21T20:11:27.918Z,73.60
2022-10-21T20:13:54.554Z,75.03
2022-10-21T20:16:27.346Z,74.32
2022-10-21T20:18:55.667Z,71.76
2022-10-21T20:21:23.463Z,72.46
2022-10-21T20:23:50.860Z,73.86
2022-10-21T20:26:17.758Z,73.25
2022-10-21T20:28:44.342Z,73.68
2022-10-21T20:31:13.226Z,74.38
2022-10-21T20:33:42.786Z,73.79
2022-10-21T20:36:15.993Z,74.65
2022-10-21T20:38:42.873Z,75.38
2022-10-21T20:41:13.942Z,75.07
2022-10-21T20:43:41.792Z,74.63
2022-10-21T20:46:11.083Z,75.40
2022-10-21T20:48:41.858Z,75.26
2022-10-21T20:51:11.299Z,75.38
2022-10-21T20:53:38.250Z,76.61
2022-10-21T20:56:04.943Z,77.03
2022-10-21T20:58:35.007Z,76.78
2022-10-21T21:01:32.989Z,76.21
2022-10-21T21:04:03.599Z,75.61
2022-10-21T21:06:31.212Z,75.46
2022-10-21T21:09:22.455Z,75.92
2022-10-21T21:11:45.049Z,76.79
2022-10-21T21:14:11.856Z,76.32
2022-10-21T21:16:38.535Z,77.25
2022-10-21T21:19:07.150Z,75.72
2022-10-21T21:21:36.130Z,76.84
2022-10-21T21:24:03.322Z,76.18
2022-10-21T21:26:35.867Z,76.39
2022-10-21T21:29:03.962Z,77.09
2022-10-21T21:31:30.539Z,77.07
2022-10-21T21:33:57.939Z,76.79
2022-10-21T21:36:25.658Z,76.17
2022-10-21T21:38:52.296Z,77.57
2022-10-21T21:41:18.945Z,77.18
2022-10-21T21:43:47.358Z,77.33
2022-10-21T21:46:15.267Z,75.84
2022-10-21T21:48:44.487Z,75.31
2022-10-21T21:51:13.434Z,77.31
2022-10-21T21:53:40.019Z,75.72
2022-10-21T21:56:07.268Z,76.67
2022-10-21T21:58:34.706Z,75.85
2022-10-21T22:01:15.584Z,77.08
2022-10-21T22:03:42.768Z,76.46
2022-10-21T22:06:10.204Z,76.86
2022-10-21T22:08:41.803Z,76.86
2022-10-21T22:11:17.234Z,77.17
2022-10-21T22:13:44.338Z,77.99
2022-10-21T22:16:12.345Z,77.10
2022-10-21T22:18:39.652Z,77.51
2022-10-21T22:21:08.715Z,75.82
2022-10-21T22:23:36.166Z,76.72
2022-10-21T22:26:02.787Z,76.69
2022-10-21T22:28:29.523Z,76.26
2022-10-21T22:30:59.533Z,77.62
2022-10-21T22:33:27.073Z,78.53
2022-10-21T22:35:53.651Z,77.02
2022-10-21T22:38:20.350Z,75.49
2022-10-21T22:40:47.037Z,75.87
2022-10-21T22:43:13.606Z,76.79
2022-10-21T22:45:40.204Z,77.63
2022-10-21T22:48:06.835Z,78.63
2022-10-21T22:50:33.436Z,78.33
2022-10-21T22:53:00.055Z,78.42
2022-10-21T22:55:26.701Z,78.24
2022-10-21T22:57:53.269Z,78.35
2022-10-21T23:00:19.933Z,77.66
2022-10-21T23:02:46.521Z,78.88
2022-10-21T23:05:13.475Z,78.41
2022-10-21T23:07:40.532Z,78.39
2022-10-21T23:12:39.330Z,78.70
2022-10-21T23:15:07.647Z,77.84
2022-10-21T23:17:34.501Z,78.91
2022-10-21T23:20:01.052Z,79.65
2022-10-21T23:22:27.671Z,79.42
2022-10-21T23:24:54.300Z,79.88
2022-10-21T23:27:21.151Z,80.45
2022-10-21T23:29:47.711Z,79.76
2022-10-21T23:32:14.311Z,79.40
2022-10-21T23:34:40.876Z,79.72
2022-10-21T23:37:07.546Z,80.15
2022-10-21T23:39:34.301Z,79.76
2022-10-21T23:42:00.901Z,78.85
2022-10-21T23:44:27.472Z,78.57
2022-10-21T23:46:54.090Z,77.59
2022-10-21T23:49:20.781Z,77.51
2022-10-21T23:51:47.407Z,79.68
2022-10-21T23:54:14.063Z,81.51
2022-10-21T23:56:40.692Z,79.53
2022-10-21T23:59:07.315Z,80.82
